createdAt,value
2018-07-01T00:00:18.600Z,36.70
2018-07-01T00:02:46.894Z,36.90
2018-07-01T00:05:15.210Z,37.00
2018-07-01T00:07:43.511Z,37.00
2018-07-01T00:10:11.882Z,37.00
2018-07-01T00:12:40.209Z,37.10
2018-07-01T00:15:09.121Z,37.40
2018-07-01T00:17:37.665Z,37.40
2018-07-01T00:20:06.940Z,37.40
2018-07-01T00:22:35.444Z,37.60
2018-07-01T00:25:03.872Z,37.60
2018-07-01T00:27:32.171Z,38.00
2018-07-01T00:30:00.519Z,37.90
2018-07-01T00:32:28.837Z,37.90
2018-07-01T00:34:57.342Z,37.90
2018-07-01T00:37:25.695Z,38.00
2018-07-01T00:39:54.025Z,38.10
2018-07-01T00:42:22.739Z,38.00
2018-07-01T00:44:51.079Z,38.00
2018-07-01T00:47:19.403Z,38.10
2018-07-01T00:49:47.731Z,38.30
2018-07-01T00:52:16.065Z,38.30
2018-07-01T00:54:44.343Z,38.60
2018-07-01T00:57:12.608Z,38.80
2018-07-01T00:59:40.900Z,38.50
2018-07-01T01:02:09.232Z,38.90
2018-07-01T01:04:37.512Z,38.80
2018-07-01T01:07:05.852Z,38.70
2018-07-01T01:09:34.168Z,38.60
2018-07-01T01:12:02.709Z,38.50
2018-07-01T01:14:31.032Z,38.80
2018-07-01T01:16:59.340Z,38.80
2018-07-01T01:19:27.612Z,38.90
2018-07-01T01:21:55.930Z,39.10
2018-07-01T01:24:24.219Z,39.10
2018-07-01T01:26:52.849Z,39.20
2018-07-01T01:29:21.182Z,39.20
2018-07-01T01:31:49.408Z,39.20
2018-07-01T01:34:17.644Z,39.20
2018-07-01T01:36:46.113Z,39.40
2018-07-01T01:39:22.468Z,39.50
2018-07-01T01:41:57.781Z,39.60
2018-07-01T01:44:30.980Z,39.60
2018-07-01T01:47:05.477Z,39.60
2018-07-01T01:49:40.283Z,39.80
2018-07-01T01:53:19.939Z,39.90
2018-07-01T01:55:53.632Z,40.00
2018-07-01T01:58:27.296Z,40.20
2018-07-01T02:01:30.762Z,40.30
2018-07-01T02:04:02.536Z,40.90
2018-07-01T02:06:35.225Z,40.60
2018-07-01T02:09:05.692Z,40.60
2018-07-01T02:11:37.661Z,40.70
2018-07-01T02:14:09.672Z,40.80
2018-07-01T02:16:46.804Z,40.80
2018-07-01T02:19:15.100Z,40.90
2018-07-01T02:21:43.679Z,41.00
2018-07-01T02:24:16.232Z,41.20
2018-07-01T02:26:44.571Z,41.40
2018-07-01T02:29:12.895Z,41.20
2018-07-01T02:31:41.159Z,41.40
2018-07-01T02:34:09.526Z,41.40
2018-07-01T02:36:37.831Z,41.50
2018-07-01T02:39:07.791Z,42.30
2018-07-01T02:41:36.136Z,42.10
2018-07-01T02:44:04.414Z,41.80
2018-07-01T02:46:32.688Z,41.80
2018-07-01T02:49:01.109Z,42.20
2018-07-01T02:51:29.535Z,44.20
2018-07-01T02:53:57.938Z,42.80
2018-07-01T02:56:26.223Z,42.40
2018-07-01T02:58:54.593Z,44.10
2018-07-01T03:01:22.897Z,42.70
2018-07-01T03:03:51.156Z,42.40
2018-07-01T03:06:19.404Z,42.30
2018-07-01T03:08:47.696Z,42.40
2018-07-01T03:11:16.042Z,42.50
2018-07-01T03:13:44.338Z,42.50
2018-07-01T03:16:12.625Z,42.60
2018-07-01T03:18:40.879Z,43.00
2018-07-01T03:21:09.147Z,42.90
2018-07-01T03:23:37.475Z,43.00
2018-07-01T03:26:05.802Z,43.00
2018-07-01T03:28:34.111Z,43.60
2018-07-01T03:31:02.555Z,43.90
2018-07-01T03:33:30.846Z,43.00
2018-07-01T03:35:59.116Z,43.10
2018-07-01T03:38:27.817Z,43.10
2018-07-01T03:40:56.118Z,43.10
2018-07-01T03:43:24.421Z,43.60
2018-07-01T03:45:52.699Z,43.30
2018-07-01T03:48:21.158Z,43.30
2018-07-01T03:50:49.494Z,43.30
2018-07-01T03:53:17.794Z,43.20
2018-07-01T03:55:46.100Z,43.60
2018-07-01T03:58:14.406Z,43.50
2018-07-01T04:00:42.719Z,43.50
2018-07-01T04:03:11.013Z,43.50
2018-07-01T04:05:39.255Z,43.60
2018-07-01T04:08:07.539Z,43.50
2018-07-01T04:10:35.814Z,43.60
2018-07-01T04:13:04.196Z,43.60
2018-07-01T04:15:32.449Z,43.70
2018-07-01T04:18:00.753Z,43.90
2018-07-01T04:20:29.030Z,43.80
2018-07-01T04:22:57.353Z,43.90
2018-07-01T04:25:25.692Z,44.00
2018-07-01T04:27:53.980Z,44.10
2018-07-01T04:30:22.316Z,44.20
2018-07-01T04:32:50.637Z,44.10
2018-07-01T04:35:18.918Z,44.10
2018-07-01T04:40:15.314Z,44.10
2018-07-01T04:42:43.591Z,44.00
2018-07-01T04:45:11.931Z,44.20
2018-07-01T04:47:40.221Z,44.20
2018-07-01T04:50:08.524Z,44.20
2018-07-01T04:52:36.851Z,44.20
2018-07-01T04:55:05.174Z,44.10
2018-07-01T04:57:33.576Z,44.00
2018-07-01T05:00:01.889Z,44.20
2018-07-01T05:02:30.355Z,44.20
2018-07-01T05:04:58.619Z,44.10
2018-07-01T05:07:27.006Z,43.90
2018-07-01T05:09:55.249Z,43.70
2018-07-01T05:12:23.565Z,43.80
2018-07-01T05:14:51.946Z,43.60
2018-07-01T05:17:20.191Z,43.90
2018-07-01T05:19:48.531Z,43.90
2018-07-01T05:22:16.801Z,44.10
2018-07-01T05:24:45.045Z,43.50
2018-07-01T05:27:13.913Z,43.60
2018-07-01T05:29:42.147Z,43.50
2018-07-01T05:32:10.453Z,43.60
2018-07-01T05:34:38.734Z,43.50
2018-07-01T05:37:07.312Z,43.30
2018-07-01T05:39:35.669Z,43.60
2018-07-01T05:42:03.940Z,43.30
2018-07-01T05:44:32.286Z,43.40
2018-07-01T05:47:00.589Z,43.40
2018-07-01T05:49:28.960Z,43.50
2018-07-01T05:51:57.256Z,43.30
2018-07-01T05:54:25.467Z,43.30
2018-07-01T05:56:53.826Z,43.30
2018-07-01T05:59:22.547Z,42.80
2018-07-01T06:01:50.873Z,42.80
2018-07-01T06:04:19.232Z,43.20
2018-07-01T06:06:48.760Z,43.00
2018-07-01T06:09:17.484Z,42.80
2018-07-01T06:11:46.262Z,42.40
2018-07-01T06:19:10.527Z,42.10
2018-07-01T06:21:39.701Z,42.40
2018-07-01T06:24:07.976Z,42.20
2018-07-01T06:29:04.237Z,42.10
2018-07-01T06:31:32.585Z,42.10
2018-07-01T06:34:00.977Z,42.40
2018-07-01T06:36:29.256Z,42.40
2018-07-01T06:38:57.524Z,42.20
2018-07-01T06:41:25.839Z,42.00
2018-07-01T06:43:54.119Z,42.00
2018-07-01T06:46:22.363Z,42.40
2018-07-01T06:48:50.608Z,42.40
2018-07-01T06:51:18.895Z,42.00
2018-07-01T06:53:47.250Z,41.80
2018-07-01T06:56:15.527Z,41.60
2018-07-01T06:58:43.794Z,41.80
2018-07-01T07:01:12.086Z,41.90
2018-07-01T07:03:40.430Z,41.30
2018-07-01T07:06:08.730Z,41.10
2018-07-01T07:08:37.010Z,40.70
2018-07-01T07:11:05.240Z,41.10
2018-07-01T07:13:33.590Z,40.70
2018-07-01T07:18:29.862Z,39.30
2018-07-01T07:20:58.052Z,39.20
2018-07-01T07:23:26.342Z,39.20
2018-07-01T07:25:54.554Z,39.00
2018-07-01T07:28:22.770Z,38.70
2018-07-01T07:30:51.029Z,38.60
2018-07-01T07:33:19.319Z,38.30
2018-07-01T07:35:47.577Z,38.00
2018-07-01T07:38:15.805Z,38.00
2018-07-01T07:40:44.132Z,38.30
2018-07-01T07:43:14.459Z,38.20
2018-07-01T07:45:42.729Z,38.00
2018-07-01T07:48:11.019Z,38.00
2018-07-01T07:50:39.346Z,37.70
2018-07-01T07:53:07.603Z,37.60
2018-07-01T07:55:35.978Z,38.00
2018-07-01T07:58:04.231Z,37.90
2018-07-01T08:00:32.508Z,37.90
2018-07-01T08:03:00.767Z,37.60
2018-07-01T08:05:29.015Z,37.80
2018-07-01T08:07:57.362Z,37.90
2018-07-01T08:10:25.608Z,37.80
2018-07-01T08:12:53.847Z,37.60
2018-07-01T08:15:22.145Z,36.90
2018-07-01T08:17:50.423Z,37.30
2018-07-01T08:20:18.643Z,36.70
2018-07-01T08:22:46.917Z,36.40
2018-07-01T08:25:15.158Z,36.30
2018-07-01T08:27:43.411Z,36.50
2018-07-01T08:30:11.661Z,36.30
2018-07-01T08:32:39.988Z,36.10
2018-07-01T08:35:08.268Z,36.00
2018-07-01T08:37:36.528Z,36.00
2018-07-01T08:40:04.847Z,36.50
2018-07-01T08:42:36.342Z,36.70
2018-07-01T08:45:06.689Z,36.00
2018-07-01T08:47:35.575Z,35.60
2018-07-01T08:50:04.672Z,35.90
2018-07-01T08:52:33.275Z,35.60
2018-07-01T08:55:01.603Z,35.40
2018-07-01T08:57:29.856Z,35.20
2018-07-01T08:59:58.175Z,35.60
2018-07-01T09:02:26.429Z,35.60
2018-07-01T09:04:54.688Z,35.30
2018-07-01T09:07:22.944Z,35.10
2018-07-01T09:09:51.583Z,34.90
2018-07-01T09:12:19.872Z,34.40
2018-07-01T09:14:48.059Z,33.70
2018-07-01T09:17:16.352Z,33.30
2018-07-01T09:19:44.547Z,33.50
2018-07-01T09:22:13.262Z,33.70
2018-07-01T09:24:41.541Z,33.40
2018-07-01T09:27:09.831Z,33.10
2018-07-01T09:29:43.507Z,33.10
2018-07-01T09:32:11.777Z,32.60
2018-07-01T09:34:40.130Z,32.30
2018-07-01T09:37:08.358Z,32.00
2018-07-01T09:39:36.596Z,31.00
2018-07-01T09:42:04.899Z,30.90
2018-07-01T09:44:33.127Z,29.90
2018-07-01T09:47:01.437Z,29.90
2018-07-01T09:49:29.639Z,29.10
2018-07-01T09:51:57.932Z,28.60
2018-07-01T09:54:26.250Z,27.50
2018-07-01T09:56:55.098Z,27.10
2018-07-01T09:59:23.376Z,27.00
2018-07-01T10:01:51.652Z,26.40
2018-07-01T10:04:20.004Z,26.30
2018-07-01T10:06:48.348Z,25.90
2018-07-01T10:09:16.625Z,25.50
2018-07-01T10:11:44.956Z,25.60
2018-07-01T10:14:13.177Z,26.00
2018-07-01T10:16:41.425Z,26.20
2018-07-01T10:19:09.666Z,26.50
2018-07-01T10:21:38.214Z,27.20
2018-07-01T10:24:07.172Z,27.70
2018-07-01T10:26:35.542Z,28.40
2018-07-01T10:29:10.303Z,28.90
2018-07-01T10:31:39.230Z,28.70
2018-07-01T10:34:08.362Z,29.40
2018-07-01T10:36:36.667Z,29.70
2018-07-01T10:39:10.866Z,30.10
2018-07-01T10:41:39.187Z,30.80
2018-07-01T10:44:07.605Z,31.70
2018-07-01T10:46:36.774Z,31.30
2018-07-01T10:49:05.237Z,31.50
2018-07-01T10:51:33.638Z,31.40
2018-07-01T10:54:01.947Z,31.30
2018-07-01T10:56:30.344Z,31.20
2018-07-01T10:58:59.746Z,31.50
2018-07-01T11:01:28.067Z,31.60
2018-07-01T11:03:56.396Z,31.90
2018-07-01T11:06:24.807Z,32.00
2018-07-01T11:08:53.030Z,31.20
2018-07-01T11:13:49.576Z,31.50
2018-07-01T11:18:46.027Z,31.20
2018-07-01T11:21:14.320Z,31.50
2018-07-01T11:23:42.652Z,30.90
2018-07-01T11:26:10.979Z,31.50
2018-07-01T11:28:39.258Z,31.60
2018-07-01T11:31:07.544Z,31.30
2018-07-01T11:33:35.856Z,31.20
2018-07-01T11:36:04.480Z,31.20
2018-07-01T11:38:32.813Z,31.00
2018-07-01T11:41:01.128Z,30.60
2018-07-01T11:43:29.436Z,30.70
2018-07-01T11:45:57.781Z,30.30
2018-07-01T11:48:26.107Z,30.80
2018-07-01T11:50:54.362Z,31.00
2018-07-01T11:53:22.675Z,30.80
2018-07-01T11:55:50.963Z,31.20
2018-07-01T11:58:19.253Z,31.30
2018-07-01T12:03:16.398Z,31.00
2018-07-01T12:05:44.721Z,30.60
2018-07-01T12:08:13.040Z,30.70
2018-07-01T12:10:41.415Z,30.80
2018-07-01T12:13:09.780Z,30.90
2018-07-01T12:15:38.232Z,31.00
2018-07-01T12:18:06.517Z,31.00
2018-07-01T12:20:34.907Z,31.50
2018-07-01T12:23:03.344Z,31.70
2018-07-01T12:25:31.855Z,31.20
2018-07-01T12:28:00.384Z,31.30
2018-07-01T12:30:29.474Z,31.30
2018-07-01T12:32:57.795Z,31.40
2018-07-01T12:35:26.102Z,31.20
2018-07-01T12:37:54.482Z,31.00
2018-07-01T12:40:22.841Z,31.00
2018-07-01T12:42:51.256Z,30.60
2018-07-01T12:45:19.810Z,31.20
2018-07-01T12:47:48.219Z,31.40
2018-07-01T12:50:16.815Z,31.00
2018-07-01T12:52:45.203Z,31.90
2018-07-01T12:55:13.715Z,31.70
2018-07-01T12:57:42.217Z,31.80
2018-07-01T13:00:10.604Z,31.80
2018-07-01T13:02:39.041Z,31.50
2018-07-01T13:05:07.471Z,31.50
2018-07-01T13:07:36.044Z,32.00
2018-07-01T13:10:05.254Z,32.10
2018-07-01T13:12:34.219Z,32.10
2018-07-01T13:15:02.694Z,31.80
2018-07-01T13:17:31.072Z,31.70
2018-07-01T13:19:59.472Z,31.90
2018-07-01T13:24:56.075Z,31.70
2018-07-01T13:27:25.721Z,31.20
2018-07-01T13:29:54.149Z,31.30
2018-07-01T13:32:22.556Z,31.20
2018-07-01T13:34:50.945Z,31.10
2018-07-01T13:37:19.347Z,31.20
2018-07-01T13:39:47.653Z,31.40
2018-07-01T13:42:16.112Z,31.90
2018-07-01T13:44:44.502Z,31.90
2018-07-01T13:47:12.832Z,31.40
2018-07-01T13:49:41.241Z,31.30
2018-07-01T13:52:11.229Z,31.20
2018-07-01T13:54:39.591Z,31.30
2018-07-01T13:57:08.020Z,31.40
2018-07-01T13:59:36.430Z,31.20
2018-07-01T14:02:04.961Z,30.90
2018-07-01T14:04:33.488Z,30.80
2018-07-01T14:07:01.976Z,30.80
2018-07-01T14:09:30.624Z,30.40
2018-07-01T14:11:58.983Z,30.50
2018-07-01T14:19:24.171Z,30.40
2018-07-01T14:21:52.505Z,30.70
2018-07-01T14:24:21.130Z,30.80
2018-07-01T14:26:49.566Z,30.60
2018-07-01T14:29:18.039Z,30.90
2018-07-01T14:31:46.405Z,30.80
2018-07-01T14:34:14.804Z,30.90
2018-07-01T14:36:43.251Z,31.30
2018-07-01T14:39:13.313Z,31.20
2018-07-01T14:41:42.181Z,30.50
2018-07-01T14:44:10.605Z,30.40
2018-07-01T14:46:39.049Z,30.70
2018-07-01T14:49:07.645Z,30.50
2018-07-01T14:51:36.362Z,30.60
2018-07-01T14:54:04.953Z,30.80
2018-07-01T14:56:33.336Z,31.00
2018-07-01T14:59:01.935Z,31.00
2018-07-01T15:01:30.393Z,30.20
2018-07-01T15:03:58.805Z,30.40
2018-07-01T15:06:27.210Z,30.10
2018-07-01T15:08:55.632Z,30.30
2018-07-01T15:11:24.114Z,30.20
2018-07-01T15:13:52.444Z,30.20
2018-07-01T15:16:20.778Z,30.20
2018-07-01T15:18:49.298Z,30.70
2018-07-01T15:21:17.843Z,30.60
2018-07-01T15:23:46.194Z,30.60
2018-07-01T15:26:14.614Z,30.40
2018-07-01T15:28:43.212Z,30.10
2018-07-01T15:31:11.596Z,29.90
2018-07-01T15:33:40.220Z,30.20
2018-07-01T15:36:08.430Z,30.20
2018-07-01T15:41:04.927Z,30.40
2018-07-01T15:43:33.376Z,29.90
2018-07-01T15:46:01.789Z,30.20
2018-07-01T15:48:30.207Z,30.00
2018-07-01T15:50:58.730Z,29.80
2018-07-01T15:53:27.122Z,29.30
2018-07-01T15:55:55.617Z,28.80
2018-07-01T15:58:24.060Z,29.50
2018-07-01T16:00:52.455Z,29.50
2018-07-01T16:03:20.845Z,29.90
2018-07-01T16:05:49.174Z,29.90
2018-07-01T16:08:18.046Z,29.60
2018-07-01T16:10:46.393Z,29.30
2018-07-01T16:13:14.844Z,29.20
2018-07-01T16:15:43.625Z,29.40
2018-07-01T16:18:11.982Z,29.40
2018-07-01T16:20:40.410Z,29.50
2018-07-01T16:23:08.771Z,29.40
2018-07-01T16:25:42.628Z,29.70
2018-07-01T16:28:16.278Z,30.10
2018-07-01T16:30:44.957Z,30.40
2018-07-01T16:33:13.391Z,30.20
2018-07-01T16:35:42.113Z,30.30
2018-07-01T16:38:10.506Z,30.00
2018-07-01T16:40:38.939Z,29.40
2018-07-01T16:43:07.390Z,29.50
2018-07-01T16:45:35.771Z,29.60
2018-07-01T16:48:04.267Z,29.90
2018-07-01T16:50:32.681Z,30.20
2018-07-01T16:53:01.749Z,30.30
2018-07-01T16:55:30.103Z,30.30
2018-07-01T16:57:58.450Z,30.10
2018-07-01T17:00:26.752Z,30.00
2018-07-01T17:02:55.114Z,30.20
2018-07-01T17:05:23.590Z,30.10
2018-07-01T17:10:20.860Z,29.90
2018-07-01T17:12:49.192Z,29.90
2018-07-01T17:17:45.541Z,29.40
2018-07-01T17:20:13.941Z,29.40
2018-07-01T17:22:42.308Z,29.40
2018-07-01T17:25:10.625Z,29.40
2018-07-01T17:27:39.055Z,29.60
2018-07-01T17:30:07.369Z,29.70
2018-07-01T17:32:41.210Z,29.80
2018-07-01T17:35:09.532Z,29.90
2018-07-01T17:37:37.823Z,29.70
2018-07-01T17:42:34.828Z,29.90
2018-07-01T17:45:03.689Z,29.90
2018-07-01T17:47:32.032Z,29.80
2018-07-01T17:50:00.391Z,29.60
2018-07-01T17:52:28.824Z,29.40
2018-07-01T17:54:57.192Z,29.70
2018-07-01T17:57:25.576Z,29.90
2018-07-01T17:59:53.998Z,29.90
2018-07-01T18:02:22.258Z,30.00
2018-07-01T18:04:50.921Z,29.90
2018-07-01T18:07:19.608Z,30.00
2018-07-01T18:09:48.403Z,29.90
2018-07-01T18:12:17.097Z,30.00
2018-07-01T18:14:45.786Z,30.10
2018-07-01T18:17:14.476Z,30.10
2018-07-01T18:19:43.163Z,30.00
2018-07-01T18:22:21.718Z,29.50
2018-07-01T18:24:53.941Z,29.50
2018-07-01T18:27:10.130Z,29.50
2018-07-01T18:29:39.247Z,29.50
2018-07-01T18:32:08.131Z,29.70
2018-07-01T18:34:37.049Z,29.50
2018-07-01T18:37:05.743Z,29.50
2018-07-01T18:39:34.430Z,29.70
2018-07-01T18:42:03.122Z,30.00
2018-07-01T18:44:31.802Z,30.20
2018-07-01T18:47:00.608Z,30.40
2018-07-01T18:49:29.413Z,30.40
2018-07-01T18:51:58.087Z,30.40
2018-07-01T18:54:26.710Z,30.60
2018-07-01T18:56:55.360Z,30.70
2018-07-01T18:59:24.256Z,30.70
2018-07-01T19:01:53.046Z,30.90
2018-07-01T19:04:21.911Z,31.00
2018-07-01T19:06:50.631Z,31.30
2018-07-01T19:09:19.322Z,31.30
2018-07-01T19:11:48.134Z,31.30
2018-07-01T19:14:16.806Z,31.40
2018-07-01T19:16:45.596Z,31.50
2018-07-01T19:19:14.287Z,31.60
2018-07-01T19:21:43.081Z,31.60
2018-07-01T19:24:11.772Z,31.70
2018-07-01T19:26:40.461Z,31.50
2018-07-01T19:29:09.053Z,31.70
2018-07-01T19:31:38.236Z,31.60
2018-07-01T19:34:06.992Z,31.80
2018-07-01T19:36:35.634Z,31.90
2018-07-01T19:39:06.674Z,32.10
2018-07-01T19:41:36.200Z,32.20
2018-07-01T19:44:05.178Z,32.20
2018-07-01T19:46:33.976Z,32.30
2018-07-01T19:49:02.669Z,32.30
2018-07-01T19:51:31.432Z,32.30
2018-07-01T19:54:00.249Z,32.20
2018-07-01T19:56:29.046Z,32.20
2018-07-01T19:58:57.840Z,32.40
2018-07-01T20:01:26.625Z,32.40
2018-07-01T20:03:55.419Z,32.60
2018-07-01T20:06:24.119Z,32.70
2018-07-01T20:08:52.797Z,32.80
2018-07-01T20:11:21.487Z,32.80
2018-07-01T20:13:50.289Z,32.90
2018-07-01T20:16:18.962Z,32.70
2018-07-01T20:18:48.113Z,32.80
2018-07-01T20:21:16.407Z,32.70
2018-07-01T20:23:44.787Z,32.70
2018-07-01T20:26:13.239Z,32.70
2018-07-01T20:28:41.641Z,32.90
2018-07-01T20:31:10.019Z,33.00
2018-07-01T20:33:38.323Z,33.20
2018-07-01T20:36:06.820Z,33.00
2018-07-01T20:41:03.995Z,32.90
2018-07-01T20:43:32.405Z,33.00
2018-07-01T20:46:01.651Z,33.10
2018-07-01T20:48:29.972Z,33.20
2018-07-01T20:50:58.385Z,33.20
2018-07-01T20:53:26.745Z,33.10
2018-07-01T20:55:55.072Z,33.30
2018-07-01T20:58:23.367Z,33.30
2018-07-01T21:00:51.687Z,33.30
2018-07-01T21:03:20.873Z,33.40
2018-07-01T21:05:49.321Z,33.50
2018-07-01T21:08:17.549Z,33.50
2018-07-01T21:10:45.869Z,33.60
2018-07-01T21:13:14.226Z,33.80
2018-07-01T21:15:42.570Z,33.80
2018-07-01T21:18:10.895Z,33.90
2018-07-01T21:20:39.286Z,34.00
2018-07-01T21:23:08.122Z,34.10
2018-07-01T21:28:04.512Z,34.40
2018-07-01T21:30:32.902Z,34.70
2018-07-01T21:33:01.222Z,34.90
2018-07-01T21:35:29.521Z,34.90
2018-07-01T21:37:57.855Z,35.00
2018-07-01T21:40:26.237Z,35.20
2018-07-01T21:42:55.794Z,35.30
2018-07-01T21:45:24.149Z,35.40
2018-07-01T21:47:52.451Z,35.30
2018-07-01T21:50:20.693Z,35.50
2018-07-01T21:52:49.033Z,35.60
2018-07-01T21:55:18.444Z,35.70
2018-07-01T21:57:46.694Z,35.90
2018-07-01T22:00:17.324Z,35.80
2018-07-01T22:05:13.678Z,35.90
2018-07-01T22:07:41.951Z,36.10
2018-07-01T22:10:10.177Z,36.10
2018-07-01T22:12:50.581Z,36.20
2018-07-01T22:15:30.329Z,36.20
2018-07-01T22:17:58.615Z,36.30
2018-07-01T22:20:27.040Z,36.40
2018-07-01T22:22:55.409Z,36.50
2018-07-01T22:25:23.690Z,36.60
2018-07-01T22:27:52.068Z,36.80
2018-07-01T22:30:20.372Z,36.70
2018-07-01T22:32:48.691Z,36.80
2018-07-01T22:35:16.966Z,36.90
2018-07-01T22:37:45.276Z,36.90
2018-07-01T22:40:14.190Z,37.00
2018-07-01T22:45:10.646Z,37.20
2018-07-01T22:47:38.878Z,37.20
2018-07-01T22:50:07.310Z,37.30
2018-07-01T22:52:35.676Z,37.20
2018-07-01T22:55:03.966Z,37.20
2018-07-01T23:00:00.291Z,37.50
2018-07-01T23:02:49.896Z,37.60
2018-07-01T23:05:18.824Z,37.50
2018-07-01T23:07:47.112Z,37.70
2018-07-01T23:10:15.545Z,37.70
2018-07-01T23:12:44.061Z,37.60
2018-07-01T23:15:13.095Z,37.70
2018-07-01T23:17:41.791Z,37.70
2018-07-01T23:20:10.137Z,37.90
2018-07-01T23:22:38.703Z,38.00
2018-07-01T23:27:35.136Z,38.20
2018-07-01T23:30:03.383Z,38.20
2018-07-01T23:32:32.373Z,38.40
2018-07-01T23:35:00.767Z,38.50
2018-07-01T23:37:29.338Z,38.60
2018-07-01T23:39:57.969Z,38.70
2018-07-01T23:42:26.235Z,38.80
2018-07-01T23:44:54.618Z,39.00
2018-07-01T23:47:23.019Z,38.90
2018-07-01T23:49:51.416Z,38.90
2018-07-01T23:52:19.965Z,39.00
2018-07-01T23:54:48.739Z,39.10
2018-07-01T23:57:17.127Z,39.30
2018-07-01T23:59:45.486Z,39.30
